createdAt,value
2023-04-28T04:55:22.337Z,7.50
2023-04-28T05:00:25.946Z,7.70
2023-04-28T05:05:30.918Z,8.10
2023-04-28T05:10:35.782Z,8.60
2023-04-28T05:15:39.262Z,8.90
2023-04-28T05:20:42.679Z,9.10
2023-04-28T05:25:47.530Z,9.30
2023-04-28T05:30:51.223Z,9.50
2023-04-28T05:35:54.651Z,9.50
2023-04-28T05:40:59.577Z,9.60
2023-04-28T05:46:04.046Z,9.70
2023-04-28T05:51:07.983Z,9.80
2023-04-28T05:56:12.825Z,9.90
2023-04-28T06:01:16.864Z,10.10
2023-04-28T06:06:20.527Z,10.10
2023-04-28T06:11:25.392Z,10.10
2023-04-28T06:16:30.306Z,10.30
2023-04-28T06:21:33.880Z,10.30
2023-04-28T06:26:38.694Z,10.40
2023-04-28T06:31:42.151Z,10.50
2023-04-28T06:36:45.737Z,10.60
2023-04-28T06:41:50.536Z,10.80
2023-04-28T06:46:54.174Z,11.00
2023-04-28T06:51:57.826Z,10.90
2023-04-28T06:57:02.797Z,10.90
2023-04-28T07:02:06.300Z,11.00
2023-04-28T07:07:10.258Z,11.10
2023-04-28T07:12:15.276Z,11.30
2023-04-28T07:17:19.090Z,11.40
2023-04-28T07:22:22.832Z,11.60
2023-04-28T07:27:27.716Z,11.80
2023-04-28T07:32:31.434Z,12.00
2023-04-28T07:37:34.879Z,12.20
2023-04-28T07:42:41.196Z,12.30
2023-04-28T07:47:44.671Z,12.40
2023-04-28T07:52:48.554Z,12.50
2023-04-28T07:57:53.419Z,12.70
2023-04-28T08:02:57.782Z,12.80
2023-04-28T08:08:01.416Z,12.90
2023-04-28T08:13:06.200Z,13.00
2023-04-28T08:18:09.793Z,13.10
2023-04-28T08:23:13.255Z,13.20
2023-04-28T08:28:18.030Z,13.20
2023-04-28T08:33:21.733Z,13.30
2023-04-28T08:38:25.583Z,13.40
2023-04-28T08:43:31.165Z,13.60
2023-04-28T08:48:41.142Z,13.60
2023-04-28T08:59:05.911Z,13.80
2023-04-28T09:04:12.669Z,13.90
2023-04-28T09:09:20.304Z,14.00
2023-04-28T09:14:25.492Z,14.00
2023-04-28T09:19:36.159Z,14.10
2023-04-28T09:24:43.004Z,14.20
2023-04-28T09:29:55.491Z,14.40
2023-04-28T09:34:59.738Z,14.60
2023-04-28T09:40:09.430Z,14.60
2023-04-28T09:45:15.441Z,14.80
2023-04-28T09:50:18.955Z,15.00
2023-04-28T09:55:23.394Z,15.20
2023-04-28T10:00:29.326Z,15.40
2023-04-28T10:05:33.869Z,15.60
2023-04-28T10:10:39.327Z,15.80
2023-04-28T10:15:44.768Z,15.90
2023-04-28T10:20:51.140Z,16.00
2023-04-28T10:25:59.792Z,16.20
2023-04-28T10:31:14.872Z,16.40
2023-04-28T10:36:50.878Z,16.60
2023-04-28T10:41:54.462Z,16.70
2023-04-28T10:47:03.916Z,16.90
2023-04-28T10:52:51.986Z,17.10
2023-04-28T10:58:28.430Z,17.40
2023-04-28T11:03:51.757Z,17.60
2023-04-28T11:08:57.574Z,17.70
2023-04-28T11:14:32.741Z,17.80
2023-04-28T11:19:39.072Z,18.00
2023-04-28T11:24:42.936Z,18.30
2023-04-28T11:29:49.192Z,18.50
2023-04-28T11:34:54.274Z,18.90
2023-04-28T11:39:58.682Z,19.10
2023-04-28T11:45:03.741Z,19.30
2023-04-28T11:50:09.485Z,19.50
2023-04-28T11:55:18.463Z,19.60
2023-04-28T12:00:23.466Z,19.70
2023-04-28T12:05:28.309Z,19.80
2023-04-28T12:10:31.901Z,20.20
2023-04-28T12:15:42.154Z,20.40
2023-04-28T12:20:47.035Z,20.60
2023-04-28T12:25:50.467Z,20.70
2023-04-28T12:31:05.458Z,20.70
2023-04-28T12:36:10.260Z,20.90
2023-04-28T12:41:13.687Z,21.10
2023-04-28T12:46:17.194Z,21.30
2023-04-28T12:51:22.062Z,21.40
2023-04-28T12:56:25.421Z,21.70
2023-04-28T13:01:29.730Z,21.90
2023-04-28T13:06:35.307Z,22.00
2023-04-28T13:11:38.834Z,22.20
2023-04-28T13:16:42.458Z,22.40
2023-04-28T13:21:48.010Z,22.30
2023-04-28T13:26:52.556Z,22.30
2023-04-28T13:31:56.032Z,22.40
2023-04-28T13:37:01.271Z,22.50
2023-04-28T13:42:05.979Z,22.60
2023-04-28T13:47:10.929Z,22.90
2023-04-28T13:52:16.314Z,23.30
2023-04-28T13:57:19.708Z,23.60
2023-04-28T14:02:23.565Z,23.90
2023-04-28T14:07:29.352Z,24.30
2023-04-28T14:12:32.756Z,24.50
2023-04-28T14:17:36.927Z,24.50
2023-04-28T14:22:42.093Z,24.40
2023-04-28T14:27:46.522Z,24.10
2023-04-28T14:32:50.070Z,23.90
2023-04-28T14:37:54.961Z,23.90
2023-04-28T14:42:58.885Z,23.90
2023-04-28T14:48:03.405Z,23.90
2023-04-28T14:53:08.351Z,24.20
2023-04-28T14:58:12.328Z,24.60
2023-04-28T15:03:16.287Z,26.00
2023-04-28T15:08:21.100Z,26.70
2023-04-28T15:13:27.896Z,26.40
2023-04-28T15:18:31.592Z,25.70
2023-04-28T15:23:36.490Z,25.00
2023-04-28T15:28:40.040Z,24.60
2023-04-28T15:33:43.615Z,24.60
2023-04-28T15:38:49.036Z,24.60
2023-04-28T15:43:52.492Z,24.10
2023-04-28T15:48:56.142Z,24.40
2023-04-28T15:54:01.208Z,24.30
2023-04-28T15:59:04.838Z,23.90
2023-04-28T16:04:08.656Z,23.30
2023-04-28T16:09:13.740Z,22.60
2023-04-28T16:14:17.688Z,21.90
2023-04-28T16:19:21.688Z,21.40
2023-04-28T16:24:27.056Z,21.00
2023-04-28T16:29:31.258Z,20.70
2023-04-28T16:34:34.832Z,20.50
2023-04-28T16:39:40.222Z,20.40
2023-04-28T16:44:44.294Z,20.30
2023-04-28T16:49:47.941Z,20.30
2023-04-28T16:54:53.047Z,20.00
2023-04-28T16:59:56.915Z,19.80
2023-04-28T17:05:00.809Z,19.70
2023-04-28T17:10:07.212Z,19.70
2023-04-28T17:15:16.959Z,19.60
2023-04-28T17:20:21.585Z,19.60
2023-04-28T17:25:26.398Z,19.40
2023-04-28T17:30:29.844Z,19.10
2023-04-28T17:35:33.333Z,18.90
2023-04-28T17:40:38.239Z,18.60
2023-04-28T17:45:41.714Z,18.40
2023-04-28T17:50:45.126Z,18.10
2023-04-28T17:55:50.253Z,17.90
2023-04-28T18:01:00.985Z,17.80
2023-04-28T18:06:08.240Z,17.70
2023-04-28T18:11:13.401Z,17.50
2023-04-28T18:16:16.946Z,17.40
2023-04-28T18:21:20.546Z,17.40
2023-04-28T18:26:26.551Z,17.20
2023-04-28T18:31:30.169Z,17.10
2023-04-28T18:36:36.549Z,17.00
2023-04-28T18:41:41.439Z,16.90
2023-04-28T18:46:45.236Z,16.70
2023-04-28T18:51:48.748Z,16.60
2023-04-28T18:56:53.822Z,16.60
2023-04-28T19:01:58.400Z,16.60
